createdAt,value
2019-06-10T00:00:51.183Z,17.22
2019-06-10T00:02:51.109Z,17.20
2019-06-10T00:04:51.156Z,17.17
2019-06-10T00:06:51.312Z,17.13
2019-06-10T00:08:50.981Z,17.10
2019-06-10T00:10:51.466Z,17.07
2019-06-10T00:12:55.571Z,17.06
2019-06-10T00:14:51.317Z,17.04
2019-06-10T00:16:51.300Z,17.02
2019-06-10T00:18:51.428Z,17.01
2019-06-10T00:20:51.627Z,17.02
2019-06-10T00:22:51.835Z,17.05
2019-06-10T00:24:52.498Z,17.08
2019-06-10T00:26:51.532Z,17.09
2019-06-10T00:28:51.707Z,17.10
2019-06-10T00:30:51.918Z,17.11
2019-06-10T00:32:51.927Z,17.11
2019-06-10T00:34:51.188Z,17.11
2019-06-10T00:36:51.381Z,17.11
2019-06-10T00:38:52.181Z,17.12
2019-06-10T00:40:51.730Z,17.11
2019-06-10T00:42:51.097Z,17.11
2019-06-10T00:44:51.212Z,17.09
2019-06-10T00:46:52.077Z,17.09
2019-06-10T00:48:51.284Z,17.07
2019-06-10T00:50:52.145Z,17.07
2019-06-10T00:52:52.048Z,17.05
2019-06-10T00:54:52.264Z,17.01
2019-06-10T00:56:52.218Z,16.98
2019-06-10T00:58:51.803Z,16.92
2019-06-10T01:00:52.105Z,16.91
2019-06-10T01:02:52.182Z,16.85
2019-06-10T01:04:51.758Z,16.79
2019-06-10T01:06:51.943Z,16.75
2019-06-10T01:08:51.605Z,16.72
2019-06-10T01:10:52.649Z,16.68
2019-06-10T01:12:51.688Z,16.66
2019-06-10T01:14:52.062Z,16.67
2019-06-10T01:16:51.024Z,16.67
2019-06-10T01:18:53.928Z,16.64
2019-06-10T01:20:52.075Z,16.60
2019-06-10T01:22:51.961Z,16.55
2019-06-10T01:24:51.438Z,16.51
2019-06-10T01:26:50.888Z,16.42
2019-06-10T01:28:52.020Z,16.35
2019-06-10T01:30:52.059Z,16.25
2019-06-10T01:32:50.999Z,16.16
2019-06-10T01:34:51.181Z,16.10
2019-06-10T01:36:51.352Z,16.02
2019-06-10T01:38:51.618Z,15.98
2019-06-10T01:40:51.319Z,15.93
2019-06-10T01:42:51.005Z,15.88
2019-06-10T01:44:51.022Z,15.84
2019-06-10T01:46:52.077Z,15.84
2019-06-10T01:48:52.562Z,15.91
2019-06-10T01:50:51.726Z,15.89
2019-06-10T01:52:51.940Z,15.83
2019-06-10T01:54:51.942Z,15.79
2019-06-10T01:56:51.529Z,15.79
2019-06-10T01:58:51.833Z,15.77
2019-06-10T02:00:51.108Z,15.72
2019-06-10T02:02:52.803Z,15.69
2019-06-10T02:04:52.125Z,15.66
2019-06-10T02:06:51.471Z,15.66
2019-06-10T02:08:51.327Z,15.59
2019-06-10T02:10:51.316Z,15.58
2019-06-10T02:12:51.178Z,15.57
2019-06-10T02:14:51.239Z,15.58
2019-06-10T02:16:51.055Z,15.58
2019-06-10T02:19:04.362Z,15.57
2019-06-10T02:20:51.728Z,15.55
2019-06-10T02:22:51.940Z,15.54
2019-06-10T02:24:50.970Z,15.54
2019-06-10T02:26:51.968Z,15.55
2019-06-10T02:28:51.556Z,15.56
2019-06-10T02:30:56.347Z,15.55
2019-06-10T02:32:52.789Z,15.56
2019-06-10T02:36:54.179Z,15.53
2019-06-10T02:38:54.426Z,15.51
2019-06-10T02:40:54.298Z,15.48
2019-06-10T02:42:54.137Z,15.46
2019-06-10T02:44:54.467Z,15.46
2019-06-10T02:46:54.971Z,15.39
2019-06-10T02:48:50.072Z,15.37
2019-06-10T02:50:54.644Z,15.31
2019-06-10T02:52:53.295Z,15.31
2019-06-10T02:54:54.080Z,15.34
2019-06-10T02:56:54.357Z,15.38
2019-06-10T02:58:53.874Z,15.40
2019-06-10T03:00:50.093Z,15.39
2019-06-10T03:02:53.390Z,15.38
2019-06-10T03:04:50.191Z,15.38
2019-06-10T03:06:50.429Z,15.38
2019-06-10T03:08:50.329Z,15.36
2019-06-10T03:10:49.812Z,15.34
2019-06-10T03:12:50.003Z,15.32
2019-06-10T03:14:52.493Z,15.31
2019-06-10T03:16:49.775Z,15.29
2019-06-10T03:18:49.865Z,15.29
2019-06-10T03:20:53.144Z,15.27
2019-06-10T03:22:52.820Z,15.26
2019-06-10T03:24:52.491Z,15.24
2019-06-10T03:26:52.579Z,15.23
2019-06-10T03:28:52.365Z,15.22
2019-06-10T03:30:59.483Z,15.22
2019-06-10T03:32:50.481Z,15.23
2019-06-10T03:34:54.967Z,15.24
2019-06-10T03:36:50.438Z,15.25
2019-06-10T03:38:50.622Z,15.25
2019-06-10T03:40:52.802Z,15.26
2019-06-10T03:42:52.269Z,15.28
2019-06-10T03:44:52.853Z,15.27
2019-06-10T03:46:52.626Z,15.25
2019-06-10T03:48:52.465Z,15.23
2019-06-10T03:50:52.317Z,15.21
2019-06-10T03:52:52.746Z,15.20
2019-06-10T03:54:52.635Z,15.20
2019-06-10T03:56:52.366Z,15.21
2019-06-10T03:58:52.426Z,15.23
2019-06-10T04:00:52.644Z,15.26
2019-06-10T04:02:49.738Z,15.28
2019-06-10T04:04:52.652Z,15.30
2019-06-10T04:06:53.531Z,15.33
2019-06-10T04:08:52.683Z,15.36
2019-06-10T04:10:52.367Z,15.39
2019-06-10T04:12:52.634Z,15.43
2019-06-10T04:14:52.489Z,15.48
2019-06-10T04:16:52.873Z,15.51
2019-06-10T04:18:49.972Z,15.54
2019-06-10T04:20:52.966Z,15.57
2019-06-10T04:22:52.583Z,15.62
2019-06-10T04:24:52.365Z,15.64
2019-06-10T04:26:52.477Z,15.69
2019-06-10T04:28:53.153Z,15.72
2019-06-10T04:30:50.303Z,15.78
2019-06-10T04:32:53.114Z,15.85
2019-06-10T04:34:53.235Z,15.90
2019-06-10T04:36:52.920Z,15.98
2019-06-10T04:38:52.830Z,16.03
2019-06-10T04:40:52.649Z,16.06
2019-06-10T04:42:52.810Z,16.10
2019-06-10T04:44:49.912Z,16.13
2019-06-10T04:46:52.367Z,16.22
2019-06-10T04:48:52.758Z,16.22
2019-06-10T04:50:53.680Z,16.32
2019-06-10T04:52:49.701Z,16.33
2019-06-10T04:54:49.845Z,16.35
2019-06-10T04:56:50.155Z,16.38
2019-06-10T04:58:52.881Z,16.40
2019-06-10T05:00:52.642Z,16.41
2019-06-10T05:02:52.457Z,16.42
2019-06-10T05:04:50.056Z,16.45
2019-06-10T05:06:53.152Z,16.46
2019-06-10T05:08:50.363Z,16.49
2019-06-10T05:10:52.832Z,16.55
2019-06-10T05:12:52.693Z,16.64
2019-06-10T05:14:52.514Z,16.72
2019-06-10T05:16:49.829Z,16.77
2019-06-10T05:18:55.191Z,16.79
2019-06-10T05:20:58.985Z,16.84
2019-06-10T05:22:49.966Z,16.92
2019-06-10T05:24:50.037Z,17.03
2019-06-10T05:26:52.970Z,17.20
2019-06-10T05:28:52.774Z,17.32
2019-06-10T05:30:49.814Z,17.34
2019-06-10T05:32:52.259Z,17.40
2019-06-10T05:34:53.020Z,17.49
2019-06-10T05:36:52.848Z,17.54
2019-06-10T05:38:52.991Z,17.59
2019-06-10T05:40:52.403Z,17.65
2019-06-10T05:42:53.048Z,17.56
2019-06-10T05:44:52.767Z,17.50
2019-06-10T05:46:52.956Z,17.48
2019-06-10T05:48:52.942Z,17.50
2019-06-10T05:51:07.130Z,17.52
2019-06-10T05:52:52.330Z,17.58
2019-06-10T05:54:52.522Z,17.65
2019-06-10T05:56:52.466Z,17.80
2019-06-10T05:58:52.819Z,17.91
2019-06-10T06:00:49.848Z,18.04
2019-06-10T06:02:52.580Z,18.09
2019-06-10T06:04:50.235Z,18.13
2019-06-10T06:06:53.494Z,18.17
2019-06-10T06:08:52.816Z,18.12
2019-06-10T06:10:53.010Z,18.20
2019-06-10T06:12:52.868Z,18.26
2019-06-10T06:14:49.930Z,18.25
2019-06-10T06:16:53.540Z,18.32
2019-06-10T06:18:53.030Z,18.42
2019-06-10T06:20:52.915Z,18.46
2019-06-10T06:22:52.551Z,18.44
2019-06-10T06:24:52.624Z,18.57
2019-06-10T06:26:50.032Z,18.6
2019-06-10T06:28:53.243Z,18.57
2019-06-10T06:30:49.889Z,18.55
2019-06-10T06:32:50.159Z,18.54
2019-06-10T06:34:49.908Z,18.52
2019-06-10T06:36:52.966Z,18.45
2019-06-10T06:38:52.849Z,18.54
2019-06-10T06:40:54.048Z,18.67
2019-06-10T06:42:52.803Z,18.9
2019-06-10T06:44:52.854Z,19.0
2019-06-10T06:46:50.280Z,19.05
2019-06-10T06:48:53.674Z,19.08
2019-06-10T06:51:08.907Z,19.21
2019-06-10T06:53:28.030Z,19.17
2019-06-10T06:54:53.271Z,19.34
2019-06-10T06:56:53.590Z,19.34
2019-06-10T06:58:52.865Z,19.38
2019-06-10T07:01:14.324Z,19.29
2019-06-10T07:02:53.242Z,19.38
2019-06-10T07:04:52.406Z,19.38
2019-06-10T07:06:55.926Z,19.27
2019-06-10T07:09:08.433Z,19.15
2019-06-10T07:10:52.536Z,19.15
2019-06-10T07:12:52.665Z,19.13
2019-06-10T07:14:49.731Z,18.95
2019-06-10T07:16:49.922Z,18.77
2019-06-10T07:18:54.360Z,18.77
2019-06-10T07:20:50.562Z,18.74
2019-06-10T07:22:53.537Z,18.71
2019-06-10T07:24:53.287Z,18.62
2019-06-10T07:26:55.298Z,18.47
2019-06-10T07:28:52.944Z,18.38
2019-06-10T07:30:55.666Z,18.39
2019-06-10T07:32:49.736Z,18.43
2019-06-10T07:34:52.858Z,18.53
2019-06-10T07:36:52.619Z,18.61
2019-06-10T07:38:54.191Z,18.53
2019-06-10T07:40:53.255Z,18.62
2019-06-10T07:42:50.331Z,18.66
2019-06-10T07:44:50.056Z,18.58
2019-06-10T07:46:52.821Z,18.58
2019-06-10T07:48:56.959Z,18.61
2019-06-10T07:50:50.226Z,18.53
2019-06-10T07:52:50.203Z,18.49
2019-06-10T07:54:49.898Z,18.44
2019-06-10T07:56:54.117Z,18.37
2019-06-10T07:58:53.282Z,18.37
2019-06-10T08:00:53.811Z,18.44
2019-06-10T08:02:50.028Z,18.49
2019-06-10T08:04:54.752Z,18.50
2019-06-10T08:06:53.381Z,18.52
2019-06-10T08:08:53.662Z,18.58
2019-06-10T08:10:49.788Z,18.71
2019-06-10T08:12:52.580Z,18.74
2019-06-10T08:14:49.883Z,18.74
2019-06-10T08:16:53.585Z,18.88
2019-06-10T08:19:29.242Z,18.88
2019-06-10T08:20:53.149Z,19.19
2019-06-10T08:22:58.144Z,19.19
2019-06-10T08:24:52.713Z,19.54
2019-06-10T08:26:49.950Z,19.74
2019-06-10T08:28:53.489Z,19.84
2019-06-10T08:30:53.695Z,19.89
2019-06-10T08:32:56.782Z,19.92
2019-06-10T08:34:53.361Z,19.99
2019-06-10T08:36:54.844Z,19.97
2019-06-10T08:38:53.234Z,20.07
2019-06-10T08:40:52.838Z,20.19
2019-06-10T08:42:50.043Z,20.13
2019-06-10T08:44:50.251Z,20.07
2019-06-10T08:46:52.847Z,20.00
2019-06-10T08:48:52.882Z,20.08
2019-06-10T08:50:53.553Z,20.10
2019-06-10T08:53:18.074Z,19.98
2019-06-10T08:54:54.897Z,20.09
2019-06-10T08:56:54.538Z,20.27
2019-06-10T08:58:54.397Z,20.23
2019-06-10T09:00:54.183Z,20.23
2019-06-10T09:02:54.212Z,20.34
2019-06-10T09:04:54.066Z,20.39
2019-06-10T09:06:54.139Z,20.16
2019-06-10T09:08:54.997Z,20.03
2019-06-10T09:10:55.842Z,20.20
2019-06-10T09:12:54.976Z,20.32
2019-06-10T09:14:53.529Z,20.31
2019-06-10T09:16:54.684Z,20.64
2019-06-10T09:18:55.650Z,20.97
2019-06-10T09:20:56.479Z,21.29
2019-06-10T09:23:22.966Z,21.42
2019-06-10T09:24:56.714Z,21.42
2019-06-10T09:26:55.278Z,21.00
2019-06-10T09:28:56.902Z,21.00
2019-06-10T09:31:00.056Z,21.15
2019-06-10T09:33:03.585Z,21.17
2019-06-10T09:34:58.103Z,21.28
2019-06-10T09:36:57.286Z,20.94
2019-06-10T09:38:56.059Z,20.81
2019-06-10T09:41:06.540Z,20.71
2019-06-10T09:42:55.423Z,20.58
2019-06-10T09:44:56.030Z,20.59
2019-06-10T09:47:03.209Z,20.56
2019-06-10T09:48:56.855Z,20.53
2019-06-10T09:51:01.855Z,20.75
2019-06-10T09:52:57.338Z,20.77
2019-06-10T09:54:57.275Z,20.50
2019-06-10T09:56:54.978Z,20.55
2019-06-10T09:58:55.660Z,20.71
2019-06-10T10:00:58.599Z,20.78
2019-06-10T10:02:56.415Z,20.78
2019-06-10T10:04:58.882Z,20.78
2019-06-10T10:06:57.720Z,20.78
2019-06-10T10:08:58.731Z,20.74
2019-06-10T10:10:59.504Z,20.87
2019-06-10T10:12:56.074Z,21.25
2019-06-10T10:14:56.709Z,21.32
2019-06-10T10:17:04.852Z,21.54
2019-06-10T10:19:05.517Z,21.50
2019-06-10T10:21:03.986Z,21.50
2019-06-10T10:22:55.633Z,21.77
2019-06-10T10:24:57.251Z,21.63
2019-06-10T10:27:05.256Z,21.80
2019-06-10T10:28:57.330Z,22.00
2019-06-10T10:30:58.455Z,22.20
2019-06-10T10:32:54.173Z,22.20
2019-06-10T10:34:56.756Z,23.0
2019-06-10T10:36:57.615Z,23.0
2019-06-10T10:38:51.084Z,23.0
2019-06-10T10:40:59.506Z,23.0
2019-06-10T10:43:28.260Z,23.1
2019-06-10T10:44:59.595Z,23.2
2019-06-10T10:46:52.649Z,23.08
2019-06-10T10:48:54.000Z,23.3
2019-06-10T10:50:56.459Z,23.4
2019-06-10T10:52:54.123Z,23.4
2019-06-10T10:54:55.760Z,23.7
2019-06-10T10:56:59.500Z,23.7
2019-06-10T10:58:58.855Z,23.7
2019-06-10T11:00:58.169Z,23.9
2019-06-10T11:02:54.504Z,24.0
2019-06-10T11:04:50.054Z,24.0
2019-06-10T11:06:52.007Z,24.0
2019-06-10T11:08:57.756Z,24.1
2019-06-10T11:11:05.650Z,24.1
2019-06-10T11:12:55.556Z,24.1
2019-06-10T11:15:05.004Z,24.2
2019-06-10T11:16:59.116Z,24.2
2019-06-10T11:18:58.170Z,24.3
2019-06-10T11:20:51.770Z,24.4
2019-06-10T11:22:49.923Z,24.4
2019-06-10T11:24:57.877Z,24.5
2019-06-10T11:26:56.770Z,24.5
2019-06-10T11:28:56.021Z,24.5
2019-06-10T11:30:55.370Z,24.6
2019-06-10T11:32:59.722Z,24.7
2019-06-10T11:34:50.126Z,24.8
2019-06-10T11:36:56.559Z,24.8
2019-06-10T11:38:59.339Z,24.8
2019-06-10T11:41:00.171Z,24.8
2019-06-10T11:42:59.916Z,24.8
2019-06-10T11:44:59.982Z,24.8
2019-06-10T11:46:59.817Z,24.8
2019-06-10T11:48:55.899Z,24.8
2019-06-10T11:51:03.651Z,24.8
2019-06-10T11:53:04.305Z,24.8
2019-06-10T11:55:19.203Z,24.7
2019-06-10T11:56:58.731Z,24.7
2019-06-10T11:58:56.786Z,24.6
2019-06-10T12:01:03.708Z,24.6
2019-06-10T12:02:59.948Z,24.6
2019-06-10T12:04:59.252Z,24.6
2019-06-10T12:06:52.755Z,24.5
2019-06-10T12:09:03.071Z,24.4
2019-06-10T12:11:02.537Z,24.4
2019-06-10T12:13:06.878Z,24.4
2019-06-10T12:15:01.499Z,24.4
2019-06-10T12:17:34.235Z,24.4
2019-06-10T12:18:58.895Z,24.4
2019-06-10T12:20:57.484Z,24.4
2019-06-10T12:23:00.368Z,24.5
2019-06-10T12:25:28.256Z,24.5
2019-06-10T12:26:50.171Z,24.5
2019-06-10T12:29:04.739Z,24.6
2019-06-10T12:31:06.566Z,24.6
2019-06-10T12:33:01.096Z,24.6
2019-06-10T12:34:53.398Z,24.6
2019-06-10T12:37:10.996Z,24.6
2019-06-10T12:39:10.708Z,24.6
2019-06-10T12:40:50.008Z,24.6
2019-06-10T12:43:00.687Z,24.7
2019-06-10T12:44:50.261Z,24.7
2019-06-10T12:47:05.801Z,24.8
2019-06-10T12:48:50.001Z,24.9
2019-06-10T12:50:52.762Z,24.9
2019-06-10T12:52:58.878Z,24.9
2019-06-10T12:54:50.520Z,25.0
2019-06-10T12:56:49.725Z,25.0
2019-06-10T12:58:49.982Z,25.0
2019-06-10T13:00:50.082Z,25.0
2019-06-10T13:02:50.373Z,25.1
2019-06-10T13:04:52.481Z,25.1
2019-06-10T13:06:51.967Z,25.2
2019-06-10T13:08:53.524Z,25.2
2019-06-10T13:10:53.702Z,25.4
2019-06-10T13:12:53.401Z,25.4
2019-06-10T13:14:52.422Z,25.5
2019-06-10T13:16:52.992Z,25.6
2019-06-10T13:18:52.818Z,25.7
2019-06-10T13:20:49.950Z,25.7
2019-06-10T13:22:50.126Z,25.7
2019-06-10T13:24:52.495Z,25.7
2019-06-10T13:26:52.232Z,25.7
2019-06-10T13:28:52.924Z,25.7
2019-06-10T13:30:50.095Z,25.7
2019-06-10T13:32:52.972Z,25.7
2019-06-10T13:34:53.048Z,25.7
2019-06-10T13:36:52.847Z,25.7
2019-06-10T13:38:49.965Z,25.32
2019-06-10T13:40:50.057Z,24.89
2019-06-10T13:42:52.297Z,24.83
2019-06-10T13:44:53.259Z,24.16
2019-06-10T13:46:53.303Z,23.92
2019-06-10T13:48:52.654Z,23.93
2019-06-10T13:50:53.122Z,24.10
2019-06-10T13:52:52.437Z,24.43
2019-06-10T13:54:52.864Z,25.37
2019-06-10T13:56:52.686Z,25.5
2019-06-10T13:58:52.532Z,25.5
2019-06-10T14:00:54.112Z,25.7
2019-06-10T14:02:52.601Z,25.7
2019-06-10T14:04:50.362Z,25.7
2019-06-10T14:06:57.516Z,25.7
2019-06-10T14:08:55.161Z,25.8
2019-06-10T14:10:50.356Z,25.8
2019-06-10T14:12:52.907Z,25.8
2019-06-10T14:14:50.100Z,25.9
2019-06-10T14:16:54.256Z,25.9
2019-06-10T14:18:54.441Z,26.0
2019-06-10T14:20:53.806Z,26.0
2019-06-10T14:22:49.857Z,25.9
2019-06-10T14:24:49.860Z,25.9
2019-06-10T14:26:50.156Z,25.8
2019-06-10T14:28:52.854Z,25.8
2019-06-10T14:30:50.000Z,25.68
2019-06-10T14:32:50.162Z,25.15
2019-06-10T14:34:49.701Z,24.63
2019-06-10T14:36:52.647Z,24.35
2019-06-10T14:38:49.763Z,23.95
2019-06-10T14:40:52.876Z,23.85
2019-06-10T14:42:52.665Z,23.64
2019-06-10T14:44:49.773Z,23.43
2019-06-10T14:46:49.867Z,23.36
2019-06-10T14:48:49.994Z,23.12
2019-06-10T14:50:50.309Z,22.89
2019-06-10T14:52:50.481Z,22.89
2019-06-10T14:54:53.629Z,22.79
2019-06-10T14:56:57.695Z,22.71
2019-06-10T14:58:49.714Z,22.67
2019-06-10T15:00:54.736Z,22.63
2019-06-10T15:02:49.997Z,22.65
2019-06-10T15:04:53.498Z,22.58
2019-06-10T15:06:49.852Z,22.44
2019-06-10T15:08:50.026Z,22.36
2019-06-10T15:10:53.189Z,22.38
2019-06-10T15:12:53.136Z,22.33
2019-06-10T15:14:52.425Z,22.24
2019-06-10T15:16:53.806Z,22.11
2019-06-10T15:18:52.420Z,22.11
2019-06-10T15:20:50.246Z,21.92
2019-06-10T15:22:53.022Z,21.87
2019-06-10T15:24:50.126Z,21.75
2019-06-10T15:27:27.457Z,21.62
2019-06-10T15:28:52.583Z,21.61
2019-06-10T15:30:52.959Z,21.59
2019-06-10T15:32:52.775Z,21.53
2019-06-10T15:34:52.832Z,21.42
2019-06-10T15:36:53.065Z,21.36
2019-06-10T15:38:52.888Z,21.32
2019-06-10T15:40:52.752Z,21.29
2019-06-10T15:42:53.697Z,21.25
2019-06-10T15:44:56.354Z,21.14
2019-06-10T15:46:52.725Z,21.09
2019-06-10T15:48:49.762Z,21.07
2019-06-10T15:50:49.862Z,21.04
2019-06-10T15:52:52.856Z,20.94
2019-06-10T15:54:52.637Z,20.66
2019-06-10T15:56:56.985Z,20.26
2019-06-10T15:58:52.427Z,19.78
2019-06-10T16:00:53.925Z,19.59
2019-06-10T16:02:50.050Z,19.21
2019-06-10T16:04:53.050Z,19.06
2019-06-10T16:06:53.169Z,18.74
2019-06-10T16:08:52.642Z,18.65
2019-06-10T16:10:53.081Z,18.53
2019-06-10T16:12:53.100Z,18.50
2019-06-10T16:14:52.624Z,18.40
2019-06-10T16:16:52.908Z,18.35
2019-06-10T16:18:50.028Z,18.27
2019-06-10T16:20:53.360Z,18.17
2019-06-10T16:22:52.751Z,18.11
2019-06-10T16:24:49.793Z,18.09
2019-06-10T16:26:52.699Z,18.11
2019-06-10T16:28:52.403Z,18.11
2019-06-10T16:30:54.193Z,18.15
2019-06-10T16:32:53.254Z,18.18
2019-06-10T16:34:52.501Z,18.17
2019-06-10T16:36:49.803Z,18.14
2019-06-10T16:38:49.852Z,18.10
2019-06-10T16:40:53.950Z,18.02
2019-06-10T16:42:50.088Z,17.95
2019-06-10T16:44:50.091Z,17.92
2019-06-10T16:46:53.010Z,17.89
2019-06-10T16:48:53.107Z,17.86
2019-06-10T16:50:53.836Z,17.82
2019-06-10T16:52:53.788Z,17.75
2019-06-10T16:54:49.805Z,17.76
2019-06-10T16:56:52.596Z,17.78
2019-06-10T16:58:52.688Z,17.75
2019-06-10T17:00:49.743Z,17.71
2019-06-10T17:02:49.758Z,17.70
2019-06-10T17:04:52.965Z,17.73
2019-06-10T17:06:52.678Z,17.74
2019-06-10T17:08:52.301Z,17.73
2019-06-10T17:10:53.039Z,17.72
2019-06-10T17:12:50.138Z,17.71
2019-06-10T17:14:52.940Z,17.63
2019-06-10T17:16:53.147Z,17.61
2019-06-10T17:18:50.176Z,17.60
2019-06-10T17:20:50.293Z,17.60
2019-06-10T17:22:52.719Z,17.58
2019-06-10T17:24:49.770Z,17.58
2019-06-10T17:26:49.981Z,17.61
2019-06-10T17:28:52.451Z,17.62
2019-06-10T17:30:53.289Z,17.61
2019-06-10T17:32:53.419Z,17.59
2019-06-10T17:34:52.265Z,17.57
2019-06-10T17:36:49.860Z,17.56
2019-06-10T17:38:52.553Z,17.53
2019-06-10T17:40:52.343Z,17.52
2019-06-10T17:42:53.100Z,17.49
2019-06-10T17:44:53.048Z,17.45
2019-06-10T17:46:53.014Z,17.44
2019-06-10T17:48:52.415Z,17.39
2019-06-10T17:50:52.969Z,17.39
2019-06-10T17:52:50.055Z,17.38
2019-06-10T17:54:52.731Z,17.39
2019-06-10T17:56:50.152Z,17.39
2019-06-10T17:58:58.482Z,17.34
2019-06-10T18:00:53.392Z,17.33
2019-06-10T18:02:53.812Z,17.31
2019-06-10T18:04:52.860Z,17.32
2019-06-10T18:06:53.108Z,17.32
2019-06-10T18:08:52.956Z,17.32
2019-06-10T18:10:54.072Z,17.32
2019-06-10T18:12:52.903Z,17.32
2019-06-10T18:14:52.754Z,17.37
2019-06-10T18:16:52.676Z,17.41
2019-06-10T18:18:52.760Z,17.45
2019-06-10T18:20:54.115Z,17.51
2019-06-10T18:22:50.279Z,17.50
2019-06-10T18:24:52.409Z,17.49
2019-06-10T18:26:49.814Z,17.47
2019-06-10T18:29:09.737Z,17.48
2019-06-10T18:30:52.787Z,17.49
2019-06-10T18:32:52.889Z,17.46
2019-06-10T18:34:52.399Z,17.42
2019-06-10T18:36:52.454Z,17.38
2019-06-10T18:38:52.971Z,17.33
2019-06-10T18:40:50.011Z,17.32
2019-06-10T18:42:52.592Z,17.30
2019-06-10T18:44:52.575Z,17.26
2019-06-10T18:46:49.789Z,17.18
2019-06-10T18:48:49.875Z,17.16
2019-06-10T18:50:52.531Z,17.14
2019-06-10T18:52:58.706Z,17.13
2019-06-10T18:54:53.187Z,17.12
2019-06-10T18:56:53.140Z,17.13
2019-06-10T18:58:49.847Z,17.13
2019-06-10T19:01:08.193Z,17.13
2019-06-10T19:03:16.721Z,17.06
2019-06-10T19:04:49.762Z,17.00
2019-06-10T19:06:53.135Z,16.98
2019-06-10T19:08:53.399Z,16.94
2019-06-10T19:10:54.050Z,16.91
2019-06-10T19:12:50.070Z,16.89
2019-06-10T19:14:52.592Z,16.89
2019-06-10T19:16:52.570Z,16.88
2019-06-10T19:18:53.258Z,16.87
2019-06-10T19:20:53.809Z,16.85
2019-06-10T19:22:49.834Z,16.84
2019-06-10T19:24:53.126Z,16.80
2019-06-10T19:26:53.012Z,16.76
2019-06-10T19:28:50.079Z,16.76
2019-06-10T19:30:50.292Z,16.72
2019-06-10T19:32:52.869Z,16.67
2019-06-10T19:34:52.433Z,16.65
2019-06-10T19:36:52.511Z,16.63
2019-06-10T19:38:50.663Z,16.59
2019-06-10T19:40:52.719Z,16.56
2019-06-10T19:42:49.817Z,16.53
2019-06-10T19:44:52.661Z,16.49
2019-06-10T19:46:52.494Z,16.46
2019-06-10T19:49:07.504Z,16.40
2019-06-10T19:50:54.209Z,16.43
2019-06-10T19:52:52.303Z,16.43
2019-06-10T19:54:50.346Z,16.40
2019-06-10T19:56:52.698Z,16.38
2019-06-10T19:58:49.756Z,16.36
2019-06-10T20:00:54.801Z,16.36
2019-06-10T20:02:52.607Z,16.35
2019-06-10T20:04:50.009Z,16.31
2019-06-10T20:06:54.031Z,16.29
2019-06-10T20:08:52.566Z,16.25
2019-06-10T20:10:53.580Z,16.22
2019-06-10T20:12:49.772Z,16.22
2019-06-10T20:14:49.773Z,16.19
2019-06-10T20:16:53.132Z,16.18
2019-06-10T20:18:50.194Z,16.16
2019-06-10T20:20:50.283Z,16.14
2019-06-10T20:22:55.153Z,16.11
2019-06-10T20:24:52.503Z,16.09
2019-06-10T20:26:49.722Z,16.06
2019-06-10T20:28:55.699Z,16.04
2019-06-10T20:30:49.810Z,16.00
2019-06-10T20:32:56.900Z,15.99
2019-06-10T20:34:53.221Z,15.94
2019-06-10T20:36:50.407Z,15.92
2019-06-10T20:38:53.779Z,15.89
2019-06-10T20:40:49.755Z,15.86
2019-06-10T20:42:49.843Z,15.88
2019-06-10T20:44:49.843Z,15.86
2019-06-10T20:46:52.701Z,15.81
2019-06-10T20:48:54.843Z,15.76
2019-06-10T20:50:53.514Z,15.72
2019-06-10T20:52:52.803Z,15.71
2019-06-10T20:54:53.504Z,15.70
2019-06-10T20:56:53.872Z,15.69
2019-06-10T20:58:52.806Z,15.72
2019-06-10T21:00:57.417Z,15.76
2019-06-10T21:02:53.912Z,15.78
2019-06-10T21:04:50.396Z,15.77
2019-06-10T21:06:52.989Z,15.78
2019-06-10T21:08:51.521Z,15.82
2019-06-10T21:10:54.887Z,15.81
2019-06-10T21:12:51.264Z,15.81
2019-06-10T21:14:52.950Z,15.82
2019-06-10T21:16:53.898Z,15.81
2019-06-10T21:18:56.055Z,15.78
2019-06-10T21:20:56.571Z,15.73
2019-06-10T21:22:53.843Z,15.69
2019-06-10T21:24:53.886Z,15.68
2019-06-10T21:26:55.248Z,15.67
2019-06-10T21:28:55.519Z,15.61
2019-06-10T21:30:59.305Z,15.57
2019-06-10T21:32:55.072Z,15.58
2019-06-10T21:34:54.215Z,15.53
2019-06-10T21:36:54.758Z,15.53
2019-06-10T21:38:56.213Z,15.54
2019-06-10T21:40:54.446Z,15.52
2019-06-10T21:42:54.305Z,15.48
2019-06-10T21:44:50.370Z,15.41
2019-06-10T21:46:50.664Z,15.41
2019-06-10T21:48:50.877Z,15.47
2019-06-10T21:50:56.240Z,15.52
2019-06-10T21:52:54.870Z,15.60
2019-06-10T21:54:50.958Z,15.63
2019-06-10T21:56:56.029Z,15.66
2019-06-10T21:58:55.858Z,15.71
2019-06-10T22:01:16.822Z,15.71
2019-06-10T22:02:58.990Z,15.78
2019-06-10T22:04:55.767Z,15.78
2019-06-10T22:06:49.930Z,15.78
2019-06-10T22:08:56.809Z,15.79
2019-06-10T22:10:56.750Z,15.83
2019-06-10T22:12:55.893Z,15.85
2019-06-10T22:14:50.736Z,15.88
2019-06-10T22:16:56.723Z,15.89
2019-06-10T22:18:51.069Z,15.91
2019-06-10T22:20:57.839Z,15.93
2019-06-10T22:22:56.518Z,15.94
2019-06-10T22:24:55.079Z,15.95
2019-06-10T22:26:51.328Z,15.95
2019-06-10T22:28:57.828Z,15.96
2019-06-10T22:30:51.936Z,15.97
2019-06-10T22:32:52.602Z,15.97
2019-06-10T22:34:57.214Z,15.96
2019-06-10T22:36:55.377Z,15.96
2019-06-10T22:38:59.618Z,15.94
2019-06-10T22:40:57.146Z,15.93
2019-06-10T22:42:56.937Z,15.91
2019-06-10T22:44:49.880Z,15.90
2019-06-10T22:46:57.462Z,15.87
2019-06-10T22:48:51.409Z,15.87
2019-06-10T22:50:51.541Z,15.85
2019-06-10T22:52:57.637Z,15.86
2019-06-10T22:54:58.804Z,15.86
2019-06-10T22:56:49.787Z,15.82
2019-06-10T22:58:57.460Z,15.82
2019-06-10T23:00:57.935Z,15.79
2019-06-10T23:02:50.134Z,15.77
2019-06-10T23:05:01.443Z,15.75
2019-06-10T23:06:57.938Z,15.73
2019-06-10T23:08:56.189Z,15.71
2019-06-10T23:10:58.561Z,15.65
2019-06-10T23:12:59.689Z,15.62
2019-06-10T23:14:57.560Z,15.59
2019-06-10T23:16:59.624Z,15.60
2019-06-10T23:18:58.361Z,15.61
2019-06-10T23:20:51.839Z,15.62
2019-06-10T23:22:58.530Z,15.63
2019-06-10T23:24:50.063Z,15.65
2019-06-10T23:26:50.148Z,15.64
2019-06-10T23:28:55.361Z,15.65
2019-06-10T23:30:52.615Z,15.68
2019-06-10T23:32:52.795Z,15.72
2019-06-10T23:35:01.133Z,15.73
2019-06-10T23:36:59.716Z,15.76
2019-06-10T23:38:50.946Z,15.77
2019-06-10T23:40:50.940Z,15.78
2019-06-10T23:42:51.105Z,15.77
2019-06-10T23:44:51.206Z,15.78
2019-06-10T23:46:51.381Z,15.79
2019-06-10T23:48:51.758Z,15.81
2019-06-10T23:50:59.182Z,15.83
2019-06-10T23:53:00.067Z,15.85
2019-06-10T23:54:50.095Z,15.85
2019-06-10T23:56:50.257Z,15.85
2019-06-10T23:58:58.400Z,15.84
